L'Epiphanie, Canada
Current Conditions -  °F | °C
As of 4:00 AM on Wednesday 28 Jan 2015 (Local Time) from CYHU Reporting Station
Broken Clouds Broken Clouds  
Wind Chill: -4°   Ceiling: 5000
Heat Index:   Visibility: 9mi
Dew Point: -8°   Wind: 8mph
Humidity: 48%   Direction: 360°N
Pressure: 30.05"   Gusts: NA
Location:  45.85°N, 73.48°W
Report Text: CYHU 280900Z AUTO 36007KT 9SM BKN050 M13/M22 A3005 RMK SLP177
Loading
Personal Weather Stations






























Interactive Weather Map New forecast layout! Learn more

10-Day Weather Forecast

Advertisements
Track Severe Weather on mobile